Nova — SVA3643 — position and weather

sailwx.info

Track history (hours):
 
Tides and Currents Weather Stations Pressure Air Temp Water Temp Dewpoint Dewpoint Depression Visibility Wind Speed Wind Dir Waves Ship Positions

Nova

Last reported at 2017-Oct-03 09:59 UTC. Time now 2017-Oct-18 18:42 UTC.
Position N 37°36' E 023°33'.
Warning: this ship's position is 15 days out of date.

Length 19 m.

Type: Sailing vessel. MMSI: 241092000.

Date/timePositionNaut miles runAvg speedWind from/ knotsBaromVisibWave heightAir tempDewpointWater temp
2017-Oct-03 09:59N 37°36' E 023°33'4 8.4
2017-Oct-03 09:30N 37°39' E 023°36'4 6.9
2017-Oct-03 09:00N 37°42' E 023°39'3 6.0
2017-Oct-03 08:30N 37°44' E 023°42'4 7.6
2017-Oct-03 08:00N 37°47' E 023°45'2 0.1
2017-Oct-02 15:47N 37°49' E 023°47'1 3.8
2017-Oct-02 15:30N 37°48' E 023°46'4 8.4
2017-Oct-02 15:00N 37°52' E 023°43'  
2017-Sep-29 08:54N 37°55' E 023°42'0 0.9
2017-Sep-29 08:30N 37°55' E 023°42'3 6.7
2017-Sep-29 08:00N 37°53' E 023°38'4 8.2
2017-Sep-29 07:30N 37°52' E 023°33'3 6.8
2017-Sep-29 07:00N 37°51' E 023°29'4 7.8
2017-Sep-29 06:30N 37°48' E 023°26'3 0.2
2017-Sep-28 13:12N 37°44' E 023°26'0 0.4
2017-Sep-28 12:39N 37°45' E 023°26'  
2017-Sep-24 15:19N 37°36' E 023°34'3 8.0
2017-Sep-24 15:00N 37°38' E 023°36'4 7.8
2017-Sep-24 14:29N 37°42' E 023°38'4 7.7
2017-Sep-24 14:00N 37°46' E 023°39'4 7.8
2017-Sep-24 13:30N 37°50' E 023°39'4 7.8
2017-Sep-24 13:00N 37°53' E 023°41'  
Track history (hours):
 
Tides and Currents Weather Stations Pressure Air Temp Water Temp Dewpoint Dewpoint Depression Visibility Wind Speed Wind Dir Waves Ship Positions

Nova

Last reported at 2017-Oct-03 09:59 UTC. Time now 2017-Oct-18 18:42 UTC.
Position N 37°36' E 023°33'.
Warning: this ship's position is 15 days out of date.

Length 19 m.

Type: Sailing vessel. MMSI: 241092000.

Date/timePositionNaut miles runAvg speedWind from/ knotsBaromVisibWave heightAir tempDewpointWater temp
2017-Oct-03 09:59N 37°36' E 023°33'4 8.4
2017-Oct-03 09:30N 37°39' E 023°36'4 6.9
2017-Oct-03 09:00N 37°42' E 023°39'3 6.0
2017-Oct-03 08:30N 37°44' E 023°42'4 7.6
2017-Oct-03 08:00N 37°47' E 023°45'2 0.1
2017-Oct-02 15:47N 37°49' E 023°47'1 3.8
2017-Oct-02 15:30N 37°48' E 023°46'4 8.4
2017-Oct-02 15:00N 37°52' E 023°43'  
2017-Sep-29 08:54N 37°55' E 023°42'0 0.9
2017-Sep-29 08:30N 37°55' E 023°42'3 6.7
2017-Sep-29 08:00N 37°53' E 023°38'4 8.2
2017-Sep-29 07:30N 37°52' E 023°33'3 6.8
2017-Sep-29 07:00N 37°51' E 023°29'4 7.8
2017-Sep-29 06:30N 37°48' E 023°26'3 0.2
2017-Sep-28 13:12N 37°44' E 023°26'0 0.4
2017-Sep-28 12:39N 37°45' E 023°26'  
2017-Sep-24 15:19N 37°36' E 023°34'3 8.0
2017-Sep-24 15:00N 37°38' E 023°36'4 7.8
2017-Sep-24 14:29N 37°42' E 023°38'4 7.7
2017-Sep-24 14:00N 37°46' E 023°39'4 7.8
2017-Sep-24 13:30N 37°50' E 023°39'4 7.8
2017-Sep-24 13:00N 37°53' E 023°41'  

Dump ship's entire track history